Time;durP1;ratioP1;P1;durP2;ratioP2;P2;SDS_P1;SDS_P2;PMS_P1;PMS_P2;Temp;Humidity;BMP_temperature;BMP_pressure;BME280_temperature;BME280_humidity;BME280_pressure;Samples;Min_cycle;Max_cycle;Signal;HPM_P1;HPM_P2
2022/11/04 05:00:15;;;;;;;6.35;2.15;;;10.60;99.90;;;;;;6047098;23;20776;31
2022/11/04 05:02:41;;;;;;;2.55;2.42;;;10.50;99.90;;;;;;6090282;23;20189;-71
2022/11/04 05:05:09;;;;;;;3.35;1.70;;;10.60;99.90;;;;;;6094414;23;20664;-69
2022/11/04 05:07:36;;;;;;;2.33;1.88;;;10.60;99.90;;;;;;6095043;23;20267;-69
2022/11/04 05:10:03;;;;;;;2.15;1.33;;;10.60;99.90;;;;;;6098662;23;20182;-71
2022/11/04 05:13:24;;;;;;;2.55;2.42;;;10.60;99.90;;;;;;6066631;23;20212;-72
2022/11/04 05:15:18;;;;;;;3.30;2.33;;;10.60;99.90;;;;;;6068006;23;20198;-69
2022/11/04 05:17:45;;;;;;;2.28;2.17;;;10.60;99.90;;;;;;6067550;23;20192;-68
2022/11/04 05:20:13;;;;;;;3.55;3.25;;;10.50;99.90;;;;;;6063716;23;20190;-69
2022/11/04 05:22:40;;;;;;;2.95;2.53;;;10.60;99.90;;;;;;6066207;23;20187;-70
2022/11/04 05:25:07;;;;;;;2.55;2.25;;;10.60;99.90;;;;;;6069868;23;20612;-70
2022/11/04 05:27:34;;;;;;;2.50;1.85;;;10.60;99.90;;;;;;6066288;23;20182;-69
2022/11/04 05:30:00;;;;;;;1.20;1.20;;;10.50;99.90;;;;;;6066814;23;20486;-69
2022/11/04 05:32:30;;;;;;;2.20;2.08;;;10.50;99.90;;;;;;6067356;23;20237;-69
2022/11/04 05:34:57;;;;;;;3.58;2.47;;;10.50;99.90;;;;;;6063183;23;20576;-69
2022/11/04 05:37:24;;;;;;;3.70;1.70;;;10.50;99.90;;;;;;6063873;23;20186;-69
2022/11/04 05:39:51;;;;;;;2.50;2.30;;;10.60;99.90;;;;;;6065348;23;20218;-69
2022/11/04 05:42:18;;;;;;;2.63;1.95;;;10.60;99.90;;;;;;6064735;23;20208;-67
2022/11/04 05:44:45;;;;;;;1.58;1.48;;;10.60;99.90;;;;;;6064731;23;20189;-68
2022/11/04 05:47:11;;;;;;;2.78;2.63;;;10.50;99.90;;;;;;6063755;23;20188;-68
2022/11/04 05:49:39;;;;;;;2.50;2.17;;;10.60;99.90;;;;;;6063477;23;20190;-68
2022/11/04 05:52:06;;;;;;;1.15;1.10;;;10.60;99.90;;;;;;6063785;23;20202;-68
2022/11/04 05:54:33;;;;;;;1.65;1.65;;;10.50;99.90;;;;;;6064060;23;20657;-68
2022/11/04 05:56:59;;;;;;;2.63;2.50;;;10.60;99.90;;;;;;6064942;23;20209;-67
2022/11/04 05:59:26;;;;;;;2.22;2.08;;;10.50;99.90;;;;;;6064446;23;20657;-68
2022/11/04 06:01:53;;;;;;;8.52;3.60;;;10.50;99.90;;;;;;6064969;23;20214;-69
2022/11/04 06:04:19;;;;;;;2.75;2.55;;;10.50;99.90;;;;;;6062132;23;20184;-69
2022/11/04 06:06:47;;;;;;;1.48;1.48;;;10.50;99.90;;;;;;6065434;23;20516;-69
2022/11/04 06:09:14;;;;;;;2.58;2.45;;;10.50;99.90;;;;;;6066019;23;20190;-68
2022/11/04 06:11:41;;;;;;;1.73;1.65;;;10.50;99.90;;;;;;6064617;23;20204;-69
2022/11/04 06:14:07;;;;;;;2.17;2.08;;;10.50;99.90;;;;;;6064747;23;20188;-68
2022/11/04 06:16:34;;;;;;;1.73;1.73;;;10.50;99.90;;;;;;6064227;23;20538;-68
2022/11/04 06:19:01;;;;;;;2.63;2.42;;;10.50;99.90;;;;;;6064753;23;20189;-69
2022/11/04 06:21:29;;;;;;;3.03;2.20;;;10.40;99.90;;;;;;6063136;23;20205;-69
2022/11/04 06:23:58;;;;;;;1.73;1.73;;;10.40;99.90;;;;;;6064374;23;20185;-69
2022/11/04 06:26:27;;;;;;;1.73;1.73;;;10.40;99.90;;;;;;6064600;23;20187;-68
2022/11/04 06:28:54;;;;;;;3.90;2.65;;;10.40;99.90;;;;;;6063601;23;20527;-68
2022/11/04 06:31:21;;;;;;;1.92;1.83;;;10.40;99.90;;;;;;6064095;23;20208;-68
2022/11/04 06:33:47;;;;;;;1.58;1.58;;;10.40;99.90;;;;;;6064704;23;20576;-69
2022/11/04 06:36:16;;;;;;;4.55;2.15;;;10.40;99.90;;;;;;6064335;23;20522;-69
2022/11/04 06:38:43;;;;;;;2.17;2.03;;;10.40;99.90;;;;;;6065496;23;20195;-69
2022/11/04 06:41:14;;;;;;;1.90;1.80;;;10.30;99.90;;;;;;6064623;23;20202;-67
2022/11/04 06:43:41;;;;;;;2.05;1.85;;;10.30;99.90;;;;;;6063606;23;20180;-67
2022/11/04 06:46:25;;;;;;;2.95;1.50;;;10.30;99.90;;;;;;6063670;23;20567;-68
2022/11/04 06:48:52;;;;;;;3.20;2.40;;;10.30;99.90;;;;;;6065588;23;20176;-68
2022/11/04 06:51:19;;;;;;;1.90;1.80;;;10.30;99.90;;;;;;6065987;23;20208;-68
2022/11/04 06:53:45;;;;;;;2.00;1.90;;;10.20;99.90;;;;;;6066655;23;20203;-68
2022/11/04 06:56:14;;;;;;;2.45;1.95;;;10.30;99.90;;;;;;6067703;23;20202;-68
2022/11/04 06:58:41;;;;;;;2.33;1.90;;;10.30;99.90;;;;;;6067510;23;20227;-68
2022/11/04 07:01:07;;;;;;;1.92;1.83;;;10.30;99.90;;;;;;6065421;23;20245;-69
2022/11/04 07:03:34;;;;;;;4.80;2.35;;;10.30;99.90;;;;;;6067087;23;20695;-68
2022/11/04 07:06:06;;;;;;;2.25;2.15;;;10.30;99.90;;;;;;6066962;23;20785;-68
2022/11/04 07:08:33;;;;;;;1.70;1.60;;;10.30;99.90;;;;;;6071680;23;20188;-69
2022/11/04 07:10:59;;;;;;;3.30;3.10;;;10.40;99.90;;;;;;6071476;23;20311;-69
2022/11/04 07:13:28;;;;;;;1.95;1.85;;;10.40;99.90;;;;;;6071747;23;20189;-69
2022/11/04 07:15:55;;;;;;;2.25;2.15;;;10.50;99.90;;;;;;6070054;23;20572;-69
2022/11/04 07:18:21;;;;;;;2.67;1.98;;;10.50;99.90;;;;;;6070743;23;20201;-69
2022/11/04 07:20:48;;;;;;;2.50;2.40;;;10.50;99.90;;;;;;6072145;23;20210;-71
2022/11/04 07:23:15;;;;;;;4.47;2.22;;;10.50;99.90;;;;;;6071477;23;20184;-70
2022/11/04 07:25:42;;;;;;;3.15;1.88;;;10.60;99.90;;;;;;6072022;23;20685;-70
2022/11/04 07:28:09;;;;;;;3.53;3.17;;;10.60;99.90;;;;;;6070745;23;20719;-69
2022/11/04 07:30:37;;;;;;;3.28;1.98;;;10.60;99.90;;;;;;6070921;23;20207;-70
2022/11/04 07:33:04;;;;;;;2.65;1.98;;;10.60;99.90;;;;;;6070538;23;20182;-70
2022/11/04 07:35:31;;;;;;;2.60;2.40;;;10.60;99.90;;;;;;6065828;23;20590;-69
2022/11/04 07:37:57;;;;;;;2.75;2.55;;;10.60;99.90;;;;;;6064365;23;20676;-69
2022/11/04 07:40:24;;;;;;;2.65;2.50;;;10.70;99.90;;;;;;6064539;23;20200;-69
2022/11/04 07:42:51;;;;;;;2.88;2.67;;;10.70;99.90;;;;;;6063661;23;20644;-70
2022/11/04 07:45:18;;;;;;;6.30;2.92;;;10.70;99.90;;;;;;6066876;23;20188;-70
2022/11/04 07:47:46;;;;;;;1.92;1.75;;;10.70;99.90;;;;;;6065622;23;20196;-70
2022/11/04 07:50:13;;;;;;;2.08;1.98;;;10.80;99.90;;;;;;6066706;23;20185;-69
2022/11/04 07:52:40;;;;;;;4.60;3.00;;;10.80;99.90;;;;;;6064764;23;20189;-70
2022/11/04 07:55:08;;;;;;;2.38;2.20;;;10.70;99.90;;;;;;6065202;23;20183;-68
2022/11/04 07:57:35;;;;;;;2.13;1.98;;;10.80;99.90;;;;;;6065723;23;20554;-68
2022/11/04 08:00:03;;;;;;;3.35;3.15;;;10.80;99.90;;;;;;6066764;23;20490;-69
2022/11/04 08:02:30;;;;;;;2.30;2.20;;;10.80;99.90;;;;;;6064965;23;20413;-69
2022/11/04 08:04:58;;;;;;;3.30;3.05;;;10.80;99.90;;;;;;6063473;23;20185;-68
2022/11/04 08:07:24;;;;;;;2.40;2.30;;;10.80;99.90;;;;;;6066450;23;20185;-69
2022/11/04 08:09:51;;;;;;;3.08;2.88;;;10.80;99.90;;;;;;6067001;23;20182;-69
2022/11/04 08:12:19;;;;;;;2.75;2.53;;;10.80;99.90;;;;;;6065888;23;20751;-69
2022/11/04 08:14:46;;;;;;;1.80;1.70;;;10.70;99.90;;;;;;6064390;23;20192;-69
2022/11/04 08:17:13;;;;;;;2.10;1.80;;;10.70;99.90;;;;;;6068204;23;20202;-69
2022/11/04 08:19:40;;;;;;;2.63;2.42;;;10.70;99.90;;;;;;6066827;23;20183;-69
2022/11/04 08:22:08;;;;;;;2.47;1.95;;;10.60;99.90;;;;;;6067354;23;20209;-69
2022/11/04 08:24:35;;;;;;;2.35;1.80;;;10.70;99.90;;;;;;6068533;23;20596;-71
2022/11/04 08:27:06;;;;;;;3.03;2.72;;;10.70;99.90;;;;;;6065638;23;20215;-68
2022/11/04 08:29:33;;;;;;;2.40;2.20;;;10.70;99.90;;;;;;6066221;23;20730;-69
2022/11/04 08:32:00;;;;;;;2.20;2.13;;;10.70;99.90;;;;;;6066312;23;20202;-71
2022/11/04 08:34:27;;;;;;;2.17;2.08;;;10.70;99.90;;;;;;6064785;23;20189;-69
2022/11/04 08:36:56;;;;;;;6.32;2.20;;;10.80;99.90;;;;;;6064212;23;20508;-69
2022/11/04 08:39:24;;;;;;;3.55;2.53;;;10.80;99.90;;;;;;6065526;23;20371;-69
2022/11/04 08:41:52;;;;;;;2.35;2.05;;;10.90;99.90;;;;;;6065531;23;20541;-69
2022/11/04 08:44:20;;;;;;;1.65;1.65;;;10.90;99.90;;;;;;6065308;23;20664;-69
2022/11/04 08:46:46;;;;;;;3.33;2.67;;;10.90;99.90;;;;;;6067153;23;20643;-70
2022/11/04 08:49:13;;;;;;;3.30;3.05;;;11.00;99.90;;;;;;6066387;23;20231;-69
2022/11/04 08:51:43;;;;;;;4.90;2.53;;;11.00;99.90;;;;;;6065840;23;20209;-69
2022/11/04 08:54:10;;;;;;;3.35;2.60;;;11.00;99.90;;;;;;6067875;23;20214;-69
2022/11/04 08:56:39;;;;;;;2.25;2.15;;;11.10;99.90;;;;;;6065903;23;20207;-69
2022/11/04 08:59:07;;;;;;;2.33;2.22;;;11.10;99.90;;;;;;6065898;23;20186;-69
2022/11/04 09:01:36;;;;;;;2.00;1.90;;;11.10;99.90;;;;;;6064518;23;20214;-69
2022/11/04 09:04:03;;;;;;;1.95;1.95;;;11.10;99.90;;;;;;6064172;23;20517;-69
2022/11/04 09:06:33;;;;;;;1.65;1.55;;;11.20;99.90;;;;;;6064749;23;20182;-70
2022/11/04 09:09:02;;;;;;;1.98;1.88;;;11.30;99.90;;;;;;6065764;23;20720;-69
2022/11/04 09:11:30;;;;;;;3.13;2.55;;;11.30;99.90;;;;;;6066723;23;20203;-69
2022/11/04 09:14:01;;;;;;;2.47;2.38;;;11.30;99.90;;;;;;6064848;23;20182;-69
2022/11/04 09:16:28;;;;;;;1.92;1.77;;;11.30;99.90;;;;;;6063668;23;20261;-69
2022/11/04 09:18:56;;;;;;;1.75;1.70;;;11.40;99.90;;;;;;6064217;23;20182;-69
2022/11/04 09:21:23;;;;;;;2.67;2.47;;;11.50;99.90;;;;;;6063923;23;20215;-67
2022/11/04 09:23:50;;;;;;;1.85;1.75;;;11.50;99.90;;;;;;6065106;23;20194;-68
2022/11/04 09:26:17;;;;;;;1.77;1.67;;;11.60;99.90;;;;;;6066617;23;20188;-69
2022/11/04 09:28:44;;;;;;;3.37;2.63;;;11.50;99.90;;;;;;6065937;23;20761;-69
2022/11/04 09:31:15;;;;;;;1.87;1.70;;;11.50;99.90;;;;;;6063386;23;20459;-69
2022/11/04 09:33:42;;;;;;;1.53;1.43;;;11.50;99.90;;;;;;6065640;23;20532;-68
2022/11/04 09:36:10;;;;;;;2.10;2.00;;;11.50;99.90;;;;;;6065488;23;20447;-69
2022/11/04 09:38:37;;;;;;;2.30;2.20;;;11.60;99.90;;;;;;6065893;23;20281;-68
2022/11/04 09:41:10;;;;;;;2.37;2.20;;;11.60;99.90;;;;;;6066168;23;20208;-69
2022/11/04 09:43:45;;;;;;;2.40;2.28;;;11.60;99.90;;;;;;6064351;23;20415;-69
2022/11/04 09:46:14;;;;;;;2.13;1.90;;;11.70;99.90;;;;;;6065164;23;20177;-70
2022/11/04 09:48:45;;;;;;;1.73;1.63;;;11.80;99.90;;;;;;6064726;23;20431;-70
2022/11/04 09:51:13;;;;;;;2.93;2.43;;;11.80;99.90;;;;;;6064939;23;20455;-69
2022/11/04 09:53:43;;;;;;;1.57;1.47;;;11.90;99.90;;;;;;6065004;23;20435;-68
2022/11/04 09:56:16;;;;;;;1.73;1.60;;;11.90;99.90;;;;;;6064754;23;20520;-68
2022/11/04 09:58:43;;;;;;;2.27;2.10;;;11.90;99.90;;;;;;6065081;23;20431;-68
2022/11/04 10:01:26;;;;;;;4.67;2.23;;;11.90;99.90;;;;;;6065182;23;20466;-69
2022/11/04 10:04:05;;;;;;;3.20;2.50;;;11.90;99.90;;;;;;6068165;23;20468;-69
2022/11/04 10:06:43;;;;;;;1.80;1.70;;;11.80;99.90;;;;;;6067608;23;20881;-70
2022/11/04 10:09:23;;;;;;;2.67;2.57;;;11.70;99.90;;;;;;6067786;23;20498;-69
2022/11/04 10:12:03;;;;;;;1.75;1.63;;;11.60;99.90;;;;;;6064515;23;20463;-69
2022/11/04 10:14:55;;;;;;;1.40;1.30;;;11.60;99.90;;;;;;6063943;23;20471;-68
2022/11/04 10:17:45;;;;;;;2.35;2.20;;;11.60;99.90;;;;;;6065328;23;20202;-69
2022/11/04 10:20:24;;;;;;;1.13;1.13;;;11.70;99.90;;;;;;6065653;23;20183;-68
2022/11/04 10:22:58;;;;;;;1.90;1.35;;;11.80;99.90;;;;;;6062810;23;20176;-68
2022/11/04 10:25:30;;;;;;;1.10;1.10;;;11.80;99.90;;;;;;6063343;23;20569;-68
2022/11/04 10:27:58;;;;;;;2.30;2.10;;;11.90;99.90;;;;;;6064341;23;20409;-68
2022/11/04 10:30:28;;;;;;;1.83;1.73;;;12.00;99.90;;;;;;6064613;23;20431;-68
2022/11/04 10:33:03;;;;;;;2.47;2.38;;;12.00;99.90;;;;;;6063950;23;20734;-68
2022/11/04 10:35:34;;;;;;;3.40;1.93;;;12.00;99.90;;;;;;6064676;23;20166;-68
2022/11/04 10:38:15;;;;;;;1.50;1.50;;;12.00;99.90;;;;;;6061046;23;21300;-69
2022/11/04 10:40:49;;;;;;;2.43;1.97;;;12.00;99.90;;;;;;6058059;23;20451;-69
2022/11/04 10:43:21;;;;;;;1.60;1.60;;;12.10;99.90;;;;;;6061593;23;20409;-69
2022/11/04 10:46:03;;;;;;;2.60;2.23;;;12.10;99.90;;;;;;6061767;23;20172;-68
2022/11/04 10:48:37;;;;;;;2.63;2.03;;;12.10;99.90;;;;;;6064920;23;20420;-69
2022/11/04 10:51:05;;;;;;;1.73;1.63;;;12.10;99.90;;;;;;6063947;23;20454;-68
2022/11/04 10:53:33;;;;;;;4.23;1.43;;;12.10;99.90;;;;;;6063998;23;20914;-68
2022/11/04 10:56:04;;;;;;;2.53;2.33;;;12.10;99.90;;;;;;6064698;23;20431;-69
2022/11/04 10:58:34;;;;;;;5.27;1.97;;;12.20;99.90;;;;;;6066011;23;20440;-68
2022/11/04 11:01:26;;;;;;;2.20;2.10;;;12.20;99.90;;;;;;6063536;23;20454;-68
2022/11/04 11:03:54;;;;;;;2.17;2.07;;;12.20;99.90;;;;;;6065494;23;20412;-69
2022/11/04 11:06:26;;;;;;;1.27;1.17;;;12.20;99.90;;;;;;6064521;23;20500;-70
2022/11/04 11:08:56;;;;;;;2.17;1.97;;;12.20;99.90;;;;;;6066776;23;20418;-69
2022/11/04 11:11:44;;;;;;;1.80;1.70;;;12.30;99.90;;;;;;6067338;23;20764;-70
2022/11/04 11:14:32;;;;;;;2.07;1.83;;;12.30;99.90;;;;;;6063387;23;20767;-69
2022/11/04 11:17:18;;;;;;;3.60;1.33;;;12.30;99.90;;;;;;6063719;23;20435;-69
2022/11/04 11:19:50;;;;;;;2.00;1.90;;;12.40;99.90;;;;;;6064716;23;20415;-72
2022/11/04 11:22:40;;;;;;;1.23;1.23;;;12.40;99.90;;;;;;6065904;23;20814;-71
2022/11/04 11:25:24;;;;;;;2.50;2.30;;;12.50;99.90;;;;;;6058211;23;20459;-70
2022/11/04 11:27:54;;;;;;;1.53;1.47;;;12.60;99.90;;;;;;6064303;23;20419;-71
2022/11/04 11:30:23;;;;;;;1.57;1.57;;;12.70;99.90;;;;;;6065476;23;20428;-71
2022/11/04 11:32:57;;;;;;;3.60;2.17;;;12.70;99.90;;;;;;6062532;23;20424;-71
2022/11/04 11:35:31;;;;;;;0.80;0.80;;;12.70;99.90;;;;;;6064909;23;20408;-71
2022/11/04 11:37:59;;;;;;;1.00;1.00;;;12.60;99.90;;;;;;6068177;23;20443;-71
2022/11/04 11:40:32;;;;;;;0.70;0.70;;;12.60;99.90;;;;;;6069855;23;20486;-71
2022/11/04 11:43:00;;;;;;;1.23;1.23;;;12.60;99.90;;;;;;6067924;23;20412;-71
2022/11/04 11:45:28;;;;;;;0.53;0.53;;;12.50;99.90;;;;;;6079383;23;20424;-71
2022/11/04 11:47:55;;;;;;;1.23;1.23;;;12.50;99.90;;;;;;6064084;23;20431;-71
2022/11/04 11:50:29;;;;;;;1.00;1.00;;;12.50;99.90;;;;;;6065129;23;20431;-71
2022/11/04 11:53:14;;;;;;;1.03;1.03;;;12.50;99.90;;;;;;6065794;23;20435;-71
2022/11/04 11:55:46;;;;;;;1.37;1.37;;;12.50;99.90;;;;;;6066325;23;20498;-70
2022/11/04 11:58:23;;;;;;;0.53;0.53;;;12.60;99.90;;;;;;6066031;23;20471;-70
2022/11/04 12:00:54;;;;;;;0.50;0.50;;;12.60;99.90;;;;;;6066540;23;20467;-70
2022/11/04 12:03:29;;;;;;;0.53;0.53;;;12.60;99.90;;;;;;6064226;23;21187;-70
2022/11/04 12:06:13;;;;;;;0.63;0.63;;;12.80;99.90;;;;;;6066708;23;20410;-70
2022/11/04 12:08:54;;;;;;;1.03;1.03;;;12.80;99.90;;;;;;6067288;23;20412;-71
2022/11/04 12:11:27;;;;;;;1.10;1.10;;;12.80;99.90;;;;;;6065803;23;20451;-71
2022/11/04 12:13:58;;;;;;;0.70;0.70;;;12.90;99.90;;;;;;6065837;23;20419;-70
2022/11/04 12:16:33;;;;;;;0.73;0.73;;;12.80;99.90;;;;;;6067999;23;20770;-71
2022/11/04 12:19:28;;;;;;;0.60;0.60;;;12.90;99.90;;;;;;6069679;23;20407;-71
2022/11/04 12:22:01;;;;;;;0.70;0.70;;;12.80;99.90;;;;;;6066093;23;20461;-71
2022/11/04 12:24:41;;;;;;;1.00;1.00;;;12.80;99.90;;;;;;6069872;23;20420;-71
2022/11/04 12:27:18;;;;;;;0.80;0.80;;;12.70;99.90;;;;;;6068635;23;20408;-70
2022/11/04 12:30:01;;;;;;;1.00;1.00;;;12.70;99.90;;;;;;6066793;23;20439;-70
2022/11/04 12:32:36;;;;;;;0.60;0.60;;;12.70;99.90;;;;;;6066121;23;20454;-70
2022/11/04 12:35:20;;;;;;;1.03;1.03;;;12.70;99.90;;;;;;6067311;23;20415;-70
2022/11/04 12:37:58;;;;;;;1.70;1.60;;;12.60;99.90;;;;;;6066813;23;20443;-70
2022/11/04 12:40:29;;;;;;;0.93;0.93;;;12.60;99.90;;;;;;6068614;23;20776;-70
2022/11/04 12:43:10;;;;;;;1.60;1.00;;;12.70;99.90;;;;;;6067279;23;20428;-70
2022/11/04 12:45:48;;;;;;;0.67;0.67;;;12.70;99.90;;;;;;6068153;23;20412;-70
2022/11/04 12:48:32;;;;;;;1.03;1.03;;;12.80;99.90;;;;;;6068873;23;20412;-70
2022/11/04 12:51:06;;;;;;;0.70;0.70;;;12.80;99.90;;;;;;6068455;23;20450;-70
2022/11/04 12:53:53;;;;;;;1.60;1.60;;;12.90;99.90;;;;;;6069008;23;20413;-70
2022/11/04 12:56:26;;;;;;;0.90;0.83;;;12.90;99.90;;;;;;6070043;23;20408;-70
2022/11/04 12:59:27;;;;;;;0.77;0.77;;;12.80;99.90;;;;;;6069291;23;20436;-70
2022/11/04 13:01:58;;;;;;;0.90;0.90;;;12.90;99.90;;;;;;6047846;23;20463;-71
2022/11/04 13:04:31;;;;;;;0.67;0.67;;;12.90;99.90;;;;;;6066780;23;20425;-70
2022/11/04 13:07:02;;;;;;;1.60;1.23;;;12.90;99.90;;;;;;6067847;23;20465;-70
2022/11/04 13:09:36;;;;;;;0.90;0.90;;;12.90;99.90;;;;;;6067707;23;20675;-71
2022/11/04 13:12:09;;;;;;;0.70;0.70;;;13.00;99.90;;;;;;6066918;23;20469;-71
2022/11/04 13:14:44;;;;;;;0.83;0.83;;;12.90;99.90;;;;;;6065752;23;20416;-70
2022/11/04 13:17:17;;;;;;;1.20;1.20;;;12.90;99.90;;;;;;6066896;23;20905;-71
2022/11/04 13:19:48;;;;;;;0.80;0.80;;;13.00;99.90;;;;;;6067662;23;20467;-71
2022/11/04 13:22:18;;;;;;;1.90;1.17;;;12.90;99.90;;;;;;6067865;23;20927;-71
2022/11/04 13:24:50;;;;;;;0.83;0.77;;;13.00;99.90;;;;;;6067447;23;20435;-70
2022/11/04 13:27:21;;;;;;;1.23;1.10;;;13.00;99.90;;;;;;6067016;23;20409;-70
2022/11/04 13:29:51;;;;;;;1.00;1.00;;;13.10;99.90;;;;;;6067269;23;20412;-70
2022/11/04 13:32:25;;;;;;;0.70;0.70;;;13.10;99.90;;;;;;6066348;23;20752;-71
2022/11/04 13:34:57;;;;;;;1.60;1.50;;;13.20;99.90;;;;;;6067152;23;20459;-70
2022/11/04 13:37:28;;;;;;;1.27;1.17;;;13.20;99.90;;;;;;6071164;23;20711;-71
2022/11/04 13:39:58;;;;;;;0.87;0.87;;;13.10;99.90;;;;;;6068416;23;20553;-71
2022/11/04 13:42:51;;;;;;;1.27;1.27;;;13.10;99.90;;;;;;6064486;23;20448;-72
2022/11/04 13:45:20;;;;;;;1.90;0.90;;;11.50;99.90;;;;;;6067003;23;20411;-72
2022/11/04 13:47:50;;;;;;;1.03;0.73;;;13.10;99.90;;;;;;6069055;23;20437;-71
2022/11/04 13:50:34;;;;;;;1.07;1.07;;;13.00;99.90;;;;;;6066288;23;20471;-71
2022/11/04 13:53:02;;;;;;;0.60;0.60;;;13.00;99.90;;;;;;6065978;23;20969;-72
2022/11/04 13:55:29;;;;;;;1.07;1.07;;;12.90;99.90;;;;;;6066858;23;20762;-72
2022/11/04 13:57:59;;;;;;;0.77;0.77;;;12.80;99.90;;;;;;6066295;23;21156;-72
2022/11/04 14:00:27;;;;;;;0.97;0.97;;;12.80;99.90;;;;;;6067942;23;20446;-72
2022/11/04 14:02:56;;;;;;;0.57;0.57;;;12.80;99.90;;;;;;6066064;23;20412;-71
2022/11/04 14:06:02;;;;;;;1.60;0.63;;;12.80;99.90;;;;;;6067276;23;20483;-70
2022/11/04 14:08:29;;;;;;;1.80;1.10;;;12.70;99.90;;;;;;6065252;23;20405;-71
2022/11/04 14:11:08;;;;;;;0.50;0.50;;;12.70;99.90;;;;;;6065738;23;20457;-71
2022/11/04 14:14:03;;;;;;;0.87;0.87;;;12.60;99.90;;;;;;6067405;23;20407;-71
2022/11/04 14:16:45;;;;;;;1.20;1.20;;;12.60;99.90;;;;;;6067198;23;20459;-71
2022/11/04 14:19:46;;;;;;;6.23;1.10;;;12.60;99.90;;;;;;6065139;23;20436;-69
2022/11/04 14:22:15;;;;;;;1.03;1.03;;;12.60;99.90;;;;;;6044558;23;20458;-71
2022/11/04 14:24:43;;;;;;;0.67;0.67;;;12.60;99.90;;;;;;6063610;23;20474;-71
2022/11/04 14:27:24;;;;;;;1.90;1.87;;;12.70;99.90;;;;;;6067378;23;20487;-71
2022/11/04 14:29:53;;;;;;;0.77;0.77;;;12.70;99.90;;;;;;6069497;23;20436;-71
2022/11/04 14:32:26;;;;;;;0.70;0.70;;;12.70;99.90;;;;;;6069021;23;20443;-71
2022/11/04 14:34:59;;;;;;;1.03;1.03;;;12.70;99.90;;;;;;6067597;23;20607;-72
2022/11/04 14:37:30;;;;;;;0.67;0.67;;;12.70;99.90;;;;;;6068347;23;20439;-71
2022/11/04 14:39:59;;;;;;;0.80;0.80;;;12.70;99.90;;;;;;6065569;23;20431;-69
2022/11/04 14:42:43;;;;;;;1.13;0.77;;;12.60;99.90;;;;;;6068266;23;20447;-70
2022/11/04 14:45:17;;;;;;;1.27;1.27;;;12.60;99.90;;;;;;6067922;23;20410;-70
2022/11/04 14:47:47;;;;;;;1.37;0.97;;;12.50;99.90;;;;;;6067215;23;20410;-70
2022/11/04 14:50:19;;;;;;;1.13;1.13;;;12.50;99.90;;;;;;6068861;23;20412;-71
2022/11/04 14:52:49;;;;;;;2.00;1.30;;;12.50;99.90;;;;;;6069080;23;20533;-71
2022/11/04 14:55:19;;;;;;;1.00;1.00;;;12.50;99.90;;;;;;6067413;23;20451;-71
2022/11/04 14:57:47;;;;;;;1.33;1.23;;;12.50;99.90;;;;;;6066265;23;20455;-71
2022/11/04 15:00:38;;;;;;;1.43;1.33;;;12.50;99.90;;;;;;6066061;23;20433;-70
2022/11/04 15:03:12;;;;;;;1.43;1.43;;;12.50;99.90;;;;;;6063698;23;20412;-71
2022/11/04 15:05:40;;;;;;;1.20;1.20;;;12.40;99.90;;;;;;6062105;23;20416;-72
2022/11/04 15:08:33;;;;;;;7.20;1.17;;;12.40;99.90;;;;;;6065016;23;20427;-71
2022/11/04 15:11:04;;;;;;;0.50;0.50;;;12.40;99.90;;;;;;6069399;23;20522;-70
2022/11/04 15:13:34;;;;;;;0.73;0.73;;;12.40;99.90;;;;;;6069917;23;20418;-70
2022/11/04 15:16:08;;;;;;;1.07;1.07;;;12.40;99.90;;;;;;6062609;23;20407;-71
2022/11/04 15:18:38;;;;;;;1.20;1.20;;;12.30;99.90;;;;;;6066420;23;20439;-71
2022/11/04 15:21:07;;;;;;;1.17;1.17;;;12.30;99.90;;;;;;6068413;23;20778;-70
2022/11/04 15:23:37;;;;;;;2.07;1.33;;;12.30;99.90;;;;;;6069421;23;20497;-71
2022/11/04 15:26:05;;;;;;;1.15;1.15;;;12.30;99.90;;;;;;6070580;23;20487;-71
2022/11/04 15:28:38;;;;;;;1.23;1.10;;;12.20;99.90;;;;;;6068821;23;20290;-71
2022/11/04 15:31:16;;;;;;;0.83;0.83;;;12.20;99.90;;;;;;6067586;23;20450;-71
2022/11/04 15:33:46;;;;;;;1.53;1.43;;;12.20;99.90;;;;;;6063779;23;20416;-72
2022/11/04 15:36:18;;;;;;;2.17;2.13;;;12.20;99.90;;;;;;6066400;23;20415;-71
2022/11/04 15:38:49;;;;;;;3.97;3.77;;;12.10;99.90;;;;;;6067235;23;20436;-71
2022/11/04 15:44:06;;;;;;;1.20;1.20;;;12.20;99.90;;;;;;6064444;23;20930;-71
2022/11/04 15:46:34;;;;;;;1.50;1.50;;;12.10;99.90;;;;;;6064842;23;20746;-71
2022/11/04 15:49:04;;;;;;;1.57;1.57;;;12.10;99.90;;;;;;6067076;23;20973;-71
2022/11/04 15:51:36;;;;;;;1.83;1.83;;;12.10;99.90;;;;;;6068286;23;20526;-71
2022/11/04 15:54:05;;;;;;;1.98;1.88;;;12.10;99.90;;;;;;6067408;23;20420;-71
2022/11/04 15:56:38;;;;;;;1.73;1.73;;;12.00;99.90;;;;;;6069009;23;20258;-71
2022/11/04 15:59:09;;;;;;;2.23;2.03;;;12.00;99.90;;;;;;6077530;23;20435;-71
2022/11/04 16:01:46;;;;;;;1.10;1.10;;;12.00;99.90;;;;;;6064618;23;20459;-71
2022/11/04 16:04:13;;;;;;;1.65;1.65;;;11.90;99.90;;;;;;6064961;23;20172;-71
2022/11/04 16:06:41;;;;;;;2.22;1.95;;;11.90;99.90;;;;;;6064908;23;20202;-71
2022/11/04 16:09:21;;;;;;;2.37;2.27;;;11.80;99.90;;;;;;6066356;23;20180;-71
2022/11/04 16:12:12;;;;;;;1.07;1.07;;;11.80;99.90;;;;;;6066532;23;20452;-70
2022/11/04 16:14:46;;;;;;;2.00;1.40;;;11.80;99.90;;;;;;6057660;23;20445;-71
2022/11/04 16:17:14;;;;;;;7.25;1.58;;;11.70;99.90;;;;;;6063689;23;20868;-71
2022/11/04 16:19:46;;;;;;;2.00;1.98;;;11.60;99.90;;;;;;6066342;23;20534;-71
2022/11/04 16:22:19;;;;;;;1.52;1.42;;;11.60;99.90;;;;;;6065222;23;20207;-71
2022/11/04 16:24:49;;;;;;;1.45;1.45;;;11.50;99.90;;;;;;6065014;23;20172;-71
2022/11/04 16:27:19;;;;;;;1.75;1.75;;;11.40;99.90;;;;;;6067162;23;20183;-71
2022/11/04 16:29:54;;;;;;;3.65;2.03;;;11.40;99.90;;;;;;6065678;23;20195;-71
2022/11/04 16:32:27;;;;;;;4.15;3.88;;;11.30;99.90;;;;;;6065549;23;20209;-70
2022/11/04 16:34:57;;;;;;;2.33;2.10;;;11.20;99.90;;;;;;6064501;23;20167;-70
2022/11/04 16:37:25;;;;;;;1.70;1.70;;;11.20;99.90;;;;;;6065645;23;20189;-70
2022/11/04 16:39:52;;;;;;;4.72;1.95;;;11.10;99.90;;;;;;6066720;23;20249;-70
2022/11/04 16:42:19;;;;;;;2.17;1.40;;;11.00;99.90;;;;;;6066643;23;20236;-69
2022/11/04 16:44:50;;;;;;;3.30;3.10;;;11.00;99.90;;;;;;6074770;23;20246;-71
2022/11/04 16:47:18;;;;;;;3.30;3.15;;;10.90;99.90;;;;;;6065840;23;20188;-70
2022/11/04 16:49:47;;;;;;;9.40;3.78;;;10.80;99.90;;;;;;6065844;23;20189;-70
2022/11/04 16:52:19;;;;;;;3.22;3.03;;;10.70;99.90;;;;;;6067488;23;20209;-70
2022/11/04 16:54:47;;;;;;;5.88;2.92;;;10.70;99.90;;;;;;6065949;23;20177;-70
2022/11/04 16:57:14;;;;;;;3.95;2.88;;;10.70;99.90;;;;;;6066530;23;20225;-70
2022/11/04 16:59:41;;;;;;;4.15;3.50;;;10.60;99.90;;;;;;6065064;23;20227;-70
2022/11/04 17:02:19;;;;;;;3.28;2.88;;;10.60;99.90;;;;;;6064477;23;20542;-69
2022/11/04 17:04:48;;;;;;;6.10;5.43;;;10.50;99.90;;;;;;6064105;23;20632;-70
2022/11/04 17:07:14;;;;;;;12.90;5.85;;;10.50;99.90;;;;;;6066511;23;20189;-69
2022/11/04 17:09:41;;;;;;;7.20;4.20;;;10.50;99.90;;;;;;6064928;23;20188;-69
2022/11/04 17:12:08;;;;;;;8.27;3.97;;;10.40;99.90;;;;;;6065755;23;20216;-69
2022/11/04 17:14:35;;;;;;;6.35;4.18;;;10.40;99.90;;;;;;6066651;23;20225;-70
2022/11/04 17:17:02;;;;;;;7.00;3.72;;;10.40;99.90;;;;;;6066254;23;20184;-71
2022/11/04 17:19:29;;;;;;;5.07;4.45;;;10.30;99.90;;;;;;6063963;23;20205;-70
2022/11/04 17:21:59;;;;;;;6.03;5.43;;;10.40;99.90;;;;;;6063144;23;20208;-70
2022/11/04 17:24:26;;;;;;;8.50;4.85;;;10.40;99.90;;;;;;6063472;23;20190;-69
2022/11/04 17:26:52;;;;;;;4.40;4.05;;;10.30;99.90;;;;;;6065683;23;20187;-70
2022/11/04 17:29:19;;;;;;;3.97;3.67;;;10.30;99.90;;;;;;6064153;23;20185;-69
2022/11/04 17:31:46;;;;;;;8.10;4.82;;;10.30;99.90;;;;;;6064957;23;20202;-69
2022/11/04 17:34:12;;;;;;;7.75;5.45;;;10.40;99.90;;;;;;6061964;23;20278;-69
2022/11/04 17:36:39;;;;;;;7.07;6.47;;;10.40;99.90;;;;;;6061961;23;20194;-68
2022/11/04 17:39:07;;;;;;;5.45;4.95;;;10.40;99.90;;;;;;6064632;23;20198;-68
2022/11/04 17:44:18;;;;;;;5.97;5.53;;;10.30;99.90;;;;;;6066126;23;20193;-69
2022/11/04 17:46:46;;;;;;;8.27;5.45;;;10.30;99.90;;;;;;6066816;23;20188;-69
2022/11/04 17:49:15;;;;;;;5.68;5.10;;;10.30;99.90;;;;;;6064131;23;20189;-69
2022/11/04 17:51:43;;;;;;;7.28;5.75;;;10.20;99.90;;;;;;6068778;23;20514;-68
2022/11/04 17:54:12;;;;;;;4.57;4.30;;;10.20;99.90;;;;;;6064140;23;20184;-68
2022/11/04 17:56:39;;;;;;;4.03;3.83;;;10.20;99.90;;;;;;6063753;23;20189;-69
2022/11/04 17:59:06;;;;;;;3.83;3.60;;;10.10;99.90;;;;;;6064068;23;20200;-68
2022/11/04 18:01:35;;;;;;;5.35;4.05;;;10.10;99.90;;;;;;6060493;23;20214;-67
2022/11/04 18:04:02;;;;;;;3.15;2.90;;;10.10;99.90;;;;;;6060516;23;20775;-68
2022/11/04 18:06:30;;;;;;;3.90;3.55;;;10.00;99.90;;;;;;6063632;23;20187;-68
2022/11/04 18:08:58;;;;;;;4.00;3.63;;;10.00;99.90;;;;;;6066373;23;20199;-68
2022/11/04 18:14:14;;;;;;;5.47;3.47;;;10.00;99.90;;;;;;6074907;23;20174;-69
2022/11/04 18:16:40;;;;;;;4.03;3.63;;;9.90;99.90;;;;;;6062410;23;20186;-68